Time;durP1;ratioP1;P1;durP2;ratioP2;P2;SDS_P1;SDS_P2;PMS_P1;PMS_P2;Temp;Humidity;BMP_temperature;BMP_pressure;BME280_temperature;BME280_humidity;BME280_pressure;Samples;Min_cycle;Max_cycle;Signal;HPM_P1;HPM_P2
2022/06/15 00:00:44;;;;;;;2.47;2.10;;;13.80;99.90;;;;;;5049411;28;20223;-42
2022/06/15 00:03:13;;;;;;;3.23;2.20;;;13.90;99.90;;;;;;5033259;28;20214;-43
2022/06/15 00:05:42;;;;;;;3.13;1.93;;;13.90;99.90;;;;;;5050590;28;20233;-46
2022/06/15 00:08:10;;;;;;;2.63;2.27;;;13.90;99.90;;;;;;5045272;28;20786;-43
2022/06/15 00:10:39;;;;;;;2.17;1.90;;;13.90;99.90;;;;;;5046569;28;20660;-46
2022/06/15 00:13:06;;;;;;;2.47;2.03;;;13.80;99.90;;;;;;5044870;28;20595;-42
2022/06/15 00:15:33;;;;;;;1.53;1.43;;;13.80;99.90;;;;;;5046289;28;20206;-43
2022/06/15 00:18:00;;;;;;;3.80;2.00;;;13.70;99.90;;;;;;5043544;28;20210;-42
2022/06/15 00:20:27;;;;;;;3.37;2.27;;;13.80;99.90;;;;;;5039296;28;20245;-44
2022/06/15 00:22:55;;;;;;;2.70;2.13;;;13.80;99.90;;;;;;5049728;28;20206;-43
2022/06/15 00:25:22;;;;;;;2.30;1.60;;;13.80;99.90;;;;;;5044278;28;20229;-43
2022/06/15 00:27:49;;;;;;;2.50;1.70;;;13.80;99.90;;;;;;5052349;28;20289;-43
2022/06/15 00:30:16;;;;;;;3.07;1.80;;;13.90;99.90;;;;;;5048686;28;20574;-44
2022/06/15 00:32:43;;;;;;;3.63;1.70;;;13.90;99.90;;;;;;5046124;28;20207;-40
2022/06/15 00:35:10;;;;;;;2.23;2.03;;;13.80;99.90;;;;;;5032152;28;20209;-42
2022/06/15 00:37:37;;;;;;;2.57;1.80;;;13.70;99.90;;;;;;5051317;28;20204;-42
2022/06/15 00:40:09;;;;;;;5.23;2.00;;;13.70;99.90;;;;;;5043912;28;20258;-42
2022/06/15 00:42:37;;;;;;;3.10;2.50;;;13.70;99.90;;;;;;5045853;28;20203;-44
2022/06/15 00:45:05;;;;;;;3.23;2.13;;;13.70;99.90;;;;;;5044244;28;20211;-43
2022/06/15 00:47:36;;;;;;;3.60;1.80;;;13.80;99.90;;;;;;5044611;28;20657;-41
2022/06/15 00:50:08;;;;;;;3.13;1.97;;;13.80;99.90;;;;;;5033938;28;20208;-41
2022/06/15 00:52:41;;;;;;;3.07;1.80;;;13.70;99.90;;;;;;5058909;28;20195;-45
2022/06/15 00:55:16;;;;;;;2.13;1.87;;;13.70;99.90;;;;;;5041672;28;20237;-41
2022/06/15 00:57:43;;;;;;;2.77;1.80;;;13.70;99.90;;;;;;5058988;28;20205;-47
2022/06/15 01:00:12;;;;;;;2.17;1.97;;;13.70;99.90;;;;;;5040884;28;20222;-44
2022/06/15 01:02:41;;;;;;;2.80;1.87;;;13.70;99.90;;;;;;5045701;28;20205;-44
2022/06/15 01:05:14;;;;;;;3.73;2.07;;;13.70;99.90;;;;;;5030454;28;20210;-47
2022/06/15 01:08:06;;;;;;;2.37;1.73;;;13.70;99.90;;;;;;5054623;28;20651;-48
2022/06/15 01:10:53;;;;;;;2.67;1.40;;;13.70;99.90;;;;;;5044295;28;20246;-44
2022/06/15 01:13:35;;;;;;;5.20;2.27;;;13.60;99.90;;;;;;5041344;28;20191;-43
2022/06/15 01:16:08;;;;;;;2.13;1.90;;;13.60;99.90;;;;;;5043372;28;20195;-42
2022/06/15 01:18:43;;;;;;;2.80;1.87;;;13.60;99.90;;;;;;5045395;28;20224;-46
2022/06/15 01:21:22;;;;;;;4.03;2.00;;;13.70;99.90;;;;;;5031543;28;20961;-45
2022/06/15 01:24:20;;;;;;;3.63;2.07;;;13.70;99.90;;;;;;5061304;28;20203;-45
2022/06/15 01:27:20;;;;;;;2.50;1.87;;;13.70;99.90;;;;;;5030511;28;20275;-45
2022/06/15 01:30:02;;;;;;;2.90;1.93;;;13.70;99.90;;;;;;5056540;28;20198;-45
2022/06/15 01:32:38;;;;;;;2.83;1.70;;;13.60;99.90;;;;;;5054132;28;20211;-47
2022/06/15 01:35:15;;;;;;;4.87;2.40;;;13.50;99.90;;;;;;5042508;28;20195;-44
2022/06/15 01:37:49;;;;;;;3.67;2.00;;;13.60;99.90;;;;;;5044249;28;20209;-46
2022/06/15 01:40:21;;;;;;;2.10;1.90;;;13.60;99.90;;;;;;5043827;28;20323;-46
2022/06/15 01:42:52;;;;;;;2.73;2.53;;;13.50;99.90;;;;;;5043017;28;20261;-44
2022/06/15 01:45:25;;;;;;;4.00;1.80;;;13.50;99.90;;;;;;5040823;28;20234;-44
2022/06/15 01:47:56;;;;;;;2.70;2.20;;;13.60;99.90;;;;;;5045979;28;20203;-43
2022/06/15 01:50:28;;;;;;;2.97;1.93;;;13.60;99.90;;;;;;5041757;28;20203;-46
2022/06/15 01:53:00;;;;;;;3.20;2.30;;;13.60;99.90;;;;;;5038034;28;20241;-44
2022/06/15 01:55:32;;;;;;;3.03;2.10;;;13.60;99.90;;;;;;5047831;28;20208;-45
2022/06/15 01:58:05;;;;;;;2.13;1.70;;;13.50;99.90;;;;;;5045334;28;20282;-42
2022/06/15 02:00:34;;;;;;;2.67;1.90;;;13.50;99.90;;;;;;5049341;28;20708;-41
2022/06/15 02:03:08;;;;;;;3.77;2.40;;;13.50;99.90;;;;;;5038982;28;20203;-41
2022/06/15 02:05:42;;;;;;;4.07;1.67;;;13.50;99.90;;;;;;5042879;28;20198;-41
2022/06/15 02:08:17;;;;;;;1.67;1.50;;;13.50;99.90;;;;;;5039144;28;20917;-41
2022/06/15 02:10:51;;;;;;;2.50;1.87;;;13.50;99.90;;;;;;5051992;28;20230;-41
2022/06/15 02:13:24;;;;;;;3.30;2.30;;;13.40;99.90;;;;;;5041319;28;20198;-45
2022/06/15 02:15:56;;;;;;;2.03;1.77;;;13.40;99.90;;;;;;5041965;28;20589;-43
2022/06/15 02:18:27;;;;;;;3.40;2.20;;;13.40;99.90;;;;;;5048747;28;20205;-42
2022/06/15 02:21:00;;;;;;;3.37;2.00;;;13.40;99.90;;;;;;5061555;28;20276;-43
2022/06/15 02:23:31;;;;;;;3.57;1.97;;;13.40;99.90;;;;;;5050404;28;20218;-42
2022/06/15 02:25:59;;;;;;;3.80;2.40;;;13.40;99.90;;;;;;5048775;28;20209;-41
2022/06/15 02:28:46;;;;;;;4.17;2.50;;;13.40;99.90;;;;;;5053139;28;20210;-42
2022/06/15 02:31:14;;;;;;;2.80;1.97;;;13.40;99.90;;;;;;5039115;28;20242;-41
2022/06/15 02:33:47;;;;;;;4.73;2.10;;;13.40;99.90;;;;;;5042240;28;20195;-44
2022/06/15 02:36:15;;;;;;;3.83;1.90;;;13.40;99.90;;;;;;5039268;28;20203;-44
2022/06/15 02:38:45;;;;;;;3.40;2.20;;;13.50;99.90;;;;;;5037898;28;20671;-42
2022/06/15 02:41:13;;;;;;;1.90;1.80;;;13.50;99.90;;;;;;5048460;28;20231;-42
2022/06/15 02:43:42;;;;;;;2.57;1.97;;;13.40;99.90;;;;;;5042236;28;20207;-44
2022/06/15 02:46:13;;;;;;;2.20;2.00;;;13.30;99.90;;;;;;5038687;28;20191;-45
2022/06/15 02:48:42;;;;;;;4.30;2.00;;;13.30;99.90;;;;;;5040233;28;20680;-41
2022/06/15 02:51:15;;;;;;;2.33;2.10;;;13.30;99.90;;;;;;5037694;28;20207;-42
2022/06/15 02:53:49;;;;;;;2.80;2.00;;;13.30;99.90;;;;;;5037494;28;20213;-45
2022/06/15 02:56:19;;;;;;;2.90;1.83;;;13.30;99.90;;;;;;5049897;28;20222;-42
2022/06/15 02:58:49;;;;;;;3.37;2.40;;;13.30;99.90;;;;;;5061387;28;20190;-42
2022/06/15 03:01:17;;;;;;;4.47;2.50;;;13.30;99.90;;;;;;5042396;28;20276;-44
2022/06/15 03:03:48;;;;;;;2.60;2.30;;;13.30;99.90;;;;;;5049770;28;20198;-43
2022/06/15 03:06:27;;;;;;;2.87;2.23;;;13.20;99.90;;;;;;5045596;28;20234;-41
2022/06/15 03:08:59;;;;;;;3.67;2.17;;;13.20;99.90;;;;;;5039016;28;20225;-42
2022/06/15 03:11:46;;;;;;;3.00;2.27;;;13.10;99.90;;;;;;5048003;28;20226;-42
2022/06/15 03:14:17;;;;;;;2.00;1.87;;;13.10;99.90;;;;;;5039828;28;20227;-42
2022/06/15 03:16:48;;;;;;;4.57;2.33;;;13.00;99.90;;;;;;5042281;28;20216;-41
2022/06/15 03:19:17;;;;;;;3.70;2.43;;;12.90;99.90;;;;;;5037196;28;20914;-43
2022/06/15 03:21:52;;;;;;;3.03;2.07;;;13.00;99.90;;;;;;5054468;28;20590;-42
2022/06/15 03:24:20;;;;;;;2.40;1.93;;;12.90;99.90;;;;;;5058364;28;20285;-43
2022/06/15 03:26:49;;;;;;;3.83;2.13;;;12.90;99.90;;;;;;5054189;28;20237;-42
2022/06/15 03:29:18;;;;;;;3.00;2.17;;;12.80;99.90;;;;;;5041168;28;20195;-43
2022/06/15 03:31:48;;;;;;;3.13;2.30;;;12.80;99.90;;;;;;5041734;28;20223;-42
2022/06/15 03:34:17;;;;;;;2.93;1.90;;;12.90;99.90;;;;;;5038832;28;20257;-42
2022/06/15 03:36:46;;;;;;;3.07;2.33;;;12.90;99.90;;;;;;5048246;28;20199;-42
2022/06/15 03:39:13;;;;;;;3.60;2.40;;;12.90;99.90;;;;;;5043908;28;20457;-42
2022/06/15 03:41:42;;;;;;;2.10;1.90;;;12.90;99.90;;;;;;5037274;28;20539;-42
2022/06/15 03:44:10;;;;;;;2.30;2.10;;;12.90;99.90;;;;;;5041128;28;20202;-43
2022/06/15 03:46:38;;;;;;;2.97;2.47;;;12.90;99.90;;;;;;5045305;28;20199;-46
2022/06/15 03:49:15;;;;;;;2.80;2.57;;;12.90;99.90;;;;;;5040888;28;20207;-43
2022/06/15 03:51:46;;;;;;;3.20;2.20;;;13.00;99.90;;;;;;5042619;28;20313;-44
2022/06/15 03:54:13;;;;;;;3.50;2.47;;;13.00;99.90;;;;;;5040439;28;20752;-42
2022/06/15 03:56:43;;;;;;;4.53;2.27;;;13.00;99.90;;;;;;5040196;28;20293;-43
2022/06/15 03:59:15;;;;;;;3.20;2.43;;;13.00;99.90;;;;;;5049184;28;20245;-42
2022/06/15 04:01:45;;;;;;;4.10;2.17;;;13.10;99.90;;;;;;5043527;28;20280;-43
2022/06/15 04:04:11;;;;;;;2.37;2.17;;;13.20;99.90;;;;;;5052303;28;20196;-42
2022/06/15 04:06:41;;;;;;;2.30;2.10;;;13.20;99.90;;;;;;5042295;28;20295;-43
2022/06/15 04:09:08;;;;;;;2.17;1.80;;;13.30;99.90;;;;;;5045764;28;20899;-46
2022/06/15 04:14:29;;;;;;;3.90;2.73;;;13.30;99.90;;;;;;5051938;28;20207;-45
2022/06/15 04:17:05;;;;;;;2.83;2.40;;;13.40;99.90;;;;;;5054121;28;20203;-44
2022/06/15 04:23:02;;;;;;;11.57;2.50;;;13.40;99.90;;;;;;5043590;28;20251;-43
2022/06/15 04:25:35;;;;;;;2.90;2.13;;;13.50;99.90;;;;;;5049580;28;20273;-42
2022/06/15 04:28:04;;;;;;;3.60;2.50;;;13.50;99.90;;;;;;5040957;28;20573;-45
2022/06/15 04:30:31;;;;;;;5.33;2.17;;;13.50;99.90;;;;;;5052021;28;20230;-43
2022/06/15 04:32:59;;;;;;;2.90;2.30;;;13.60;99.90;;;;;;5045518;28;20209;-45
2022/06/15 04:35:32;;;;;;;3.20;2.03;;;13.60;99.90;;;;;;5051357;28;20186;-42
2022/06/15 04:38:01;;;;;;;3.07;2.20;;;13.60;99.90;;;;;;5043482;28;20215;-45
2022/06/15 04:40:37;;;;;;;4.10;2.30;;;13.60;99.90;;;;;;5063005;28;20761;-42
2022/06/15 04:43:05;;;;;;;3.80;2.37;;;13.70;99.90;;;;;;5040952;28;20292;-46
2022/06/15 04:45:32;;;;;;;2.47;2.07;;;13.70;99.90;;;;;;5042070;28;20227;-44
2022/06/15 04:48:09;;;;;;;2.43;2.13;;;13.80;99.90;;;;;;5038831;28;20209;-47
2022/06/15 04:50:37;;;;;;;4.33;2.13;;;13.70;99.90;;;;;;5049282;28;20224;-46
2022/06/15 04:53:05;;;;;;;5.60;2.37;;;13.80;99.90;;;;;;5042344;28;20241;-48
2022/06/15 04:55:34;;;;;;;4.90;3.63;;;13.80;99.90;;;;;;5045339;28;20563;-47
2022/06/15 04:58:04;;;;;;;4.07;2.40;;;13.80;99.90;;;;;;5057163;28;20196;-44
2022/06/15 05:00:35;;;;;;;2.00;1.90;;;13.80;99.90;;;;;;5041678;28;20238;-46
2022/06/15 05:03:03;;;;;;;4.80;2.30;;;13.80;99.90;;;;;;5050279;28;20223;-48
2022/06/15 05:05:29;;;;;;;8.47;2.50;;;13.80;99.90;;;;;;5046890;28;20194;-45
2022/06/15 05:07:57;;;;;;;3.40;2.53;;;13.80;99.90;;;;;;5045321;28;20206;-51
2022/06/15 05:10:26;;;;;;;4.00;1.90;;;13.80;99.90;;;;;;5060112;28;20699;-46
2022/06/15 05:12:54;;;;;;;3.50;1.97;;;13.90;99.90;;;;;;5047333;28;20226;-45
2022/06/15 05:15:26;;;;;;;3.93;2.13;;;13.90;99.90;;;;;;5043280;28;20573;-46
2022/06/15 05:18:04;;;;;;;2.90;2.23;;;13.90;99.90;;;;;;5051990;28;20197;-45
2022/06/15 05:20:35;;;;;;;2.47;2.27;;;13.90;99.90;;;;;;5048295;28;20218;-45
2022/06/15 05:23:02;;;;;;;3.83;2.37;;;14.00;99.90;;;;;;5044972;28;20703;-45
2022/06/15 05:26:08;;;;;;;4.47;2.20;;;14.00;99.90;;;;;;5048711;28;20198;-45
2022/06/15 05:28:39;;;;;;;2.97;2.30;;;14.00;99.90;;;;;;5055833;28;20199;-47
2022/06/15 05:31:14;;;;;;;2.47;2.03;;;14.00;99.90;;;;;;5040840;28;20223;-46
2022/06/15 05:33:41;;;;;;;4.07;2.00;;;14.10;99.90;;;;;;5052661;28;20201;-48
2022/06/15 05:36:18;;;;;;;8.33;2.47;;;14.10;99.90;;;;;;5053743;28;20672;-49
2022/06/15 05:38:44;;;;;;;5.27;2.43;;;14.20;99.90;;;;;;5044984;28;20198;-44
2022/06/15 05:41:11;;;;;;;5.43;2.40;;;14.20;99.90;;;;;;5047593;28;20234;-46
2022/06/15 05:43:41;;;;;;;5.70;2.33;;;14.30;99.90;;;;;;5046553;28;20253;-49
2022/06/15 05:46:21;;;;;;;5.17;2.47;;;14.30;99.90;;;;;;5049534;28;20207;-46
2022/06/15 05:48:49;;;;;;;2.27;2.10;;;14.40;99.90;;;;;;5039327;28;20298;-48
2022/06/15 05:51:20;;;;;;;4.50;2.47;;;14.50;99.90;;;;;;5050305;28;20261;-50
2022/06/15 05:53:47;;;;;;;4.97;2.50;;;14.50;99.90;;;;;;5045771;28;20219;-47
2022/06/15 05:56:14;;;;;;;5.37;2.47;;;14.60;99.90;;;;;;5048370;28;20203;-46
2022/06/15 05:58:41;;;;;;;7.37;2.30;;;14.70;99.90;;;;;;5052348;28;21013;-43
2022/06/15 06:01:10;;;;;;;6.43;2.07;;;14.70;99.90;;;;;;5038572;28;20223;-43
2022/06/15 06:03:39;;;;;;;4.63;1.67;;;14.80;99.90;;;;;;5036349;28;21043;-44
2022/06/15 06:06:06;;;;;;;7.20;2.20;;;14.80;99.90;;;;;;5056771;28;20699;-47
2022/06/15 06:08:33;;;;;;;4.27;1.63;;;14.80;99.90;;;;;;5042775;28;20195;-44
2022/06/15 06:11:00;;;;;;;5.33;1.97;;;15.00;99.90;;;;;;5050852;28;20692;-43
2022/06/15 06:13:28;;;;;;;3.80;1.70;;;15.00;99.90;;;;;;5054840;28;20203;-45
2022/06/15 06:15:56;;;;;;;5.10;1.90;;;15.00;99.90;;;;;;5036691;28;20696;-44
2022/06/15 06:18:23;;;;;;;2.63;1.60;;;15.10;99.90;;;;;;5047906;28;20223;-46
2022/06/15 06:20:52;;;;;;;4.33;2.00;;;15.10;99.90;;;;;;5050414;28;20220;-45
2022/06/15 06:23:19;;;;;;;3.43;1.83;;;15.10;99.90;;;;;;5051242;28;20214;-43
2022/06/15 06:25:47;;;;;;;2.77;1.60;;;15.10;99.90;;;;;;5051778;28;20193;-46
2022/06/15 06:28:24;;;;;;;3.13;1.80;;;15.20;99.90;;;;;;5044870;28;20690;-47
2022/06/15 06:30:51;;;;;;;3.90;2.10;;;15.30;99.90;;;;;;5038984;28;20236;-44
2022/06/15 06:33:18;;;;;;;5.87;2.00;;;15.30;99.90;;;;;;5051956;28;20213;-46
2022/06/15 06:35:45;;;;;;;4.47;1.80;;;15.40;99.90;;;;;;5041454;28;20199;-44
2022/06/15 06:38:14;;;;;;;2.73;1.50;;;15.50;99.90;;;;;;5044015;28;20722;-47
2022/06/15 06:40:42;;;;;;;3.70;1.77;;;15.50;99.90;;;;;;5040949;28;20306;-44
2022/06/15 06:43:08;;;;;;;4.07;1.97;;;15.60;99.90;;;;;;5039339;28;20227;-48
2022/06/15 06:45:36;;;;;;;4.30;2.57;;;15.60;99.90;;;;;;5037401;28;20199;-45
2022/06/15 06:48:03;;;;;;;6.57;2.90;;;15.70;99.90;;;;;;5048931;28;20884;-47
2022/06/15 06:50:30;;;;;;;5.77;3.17;;;15.80;99.90;;;;;;5043484;28;20691;-45
2022/06/15 06:52:57;;;;;;;5.97;2.60;;;15.80;99.90;;;;;;5040463;28;20194;-47
2022/06/15 06:55:28;;;;;;;3.23;1.80;;;15.80;99.90;;;;;;5043390;28;20199;-45
2022/06/15 06:57:56;;;;;;;3.73;2.27;;;15.90;99.90;;;;;;5045412;28;20191;-47
2022/06/15 07:00:23;;;;;;;2.30;1.90;;;16.00;99.90;;;;;;5052139;28;20773;-49
2022/06/15 07:02:50;;;;;;;4.40;2.40;;;16.10;99.90;;;;;;5039858;28;20246;-46
2022/06/15 07:05:17;;;;;;;4.67;2.83;;;16.10;99.90;;;;;;5043009;28;20211;-44
2022/06/15 07:07:44;;;;;;;4.90;2.83;;;16.10;99.90;;;;;;5050543;28;20678;-44
2022/06/15 07:10:12;;;;;;;3.27;2.10;;;16.20;99.90;;;;;;5040523;28;20231;-44
2022/06/15 07:12:42;;;;;;;4.13;2.10;;;16.20;99.90;;;;;;5043155;28;20195;-44
2022/06/15 07:15:11;;;;;;;3.80;2.43;;;16.30;99.90;;;;;;5041188;28;20278;-47
2022/06/15 07:17:40;;;;;;;3.30;1.63;;;16.30;99.90;;;;;;5036802;28;20681;-45
2022/06/15 07:20:09;;;;;;;4.20;2.03;;;16.30;99.90;;;;;;5041612;28;20219;-47
2022/06/15 07:22:37;;;;;;;5.07;2.47;;;16.40;99.90;;;;;;5047059;28;20226;-45
2022/06/15 07:25:04;;;;;;;4.07;1.87;;;16.40;99.90;;;;;;5039576;28;20218;-44
2022/06/15 07:27:33;;;;;;;5.23;1.67;;;16.40;99.90;;;;;;5052496;28;20199;-44
2022/06/15 07:30:03;;;;;;;3.73;2.10;;;16.50;99.90;;;;;;5039162;28;20214;-46
2022/06/15 07:32:30;;;;;;;4.20;1.80;;;16.50;99.90;;;;;;5042264;28;20199;-45
2022/06/15 07:34:57;;;;;;;6.50;1.90;;;16.60;99.90;;;;;;5035629;28;20210;-44
2022/06/15 07:37:24;;;;;;;1.90;1.70;;;16.70;99.90;;;;;;5051976;28;20207;-47
2022/06/15 07:39:51;;;;;;;4.57;2.53;;;16.70;99.90;;;;;;5044465;28;20217;-47
2022/06/15 07:42:20;;;;;;;4.27;2.40;;;16.80;99.90;;;;;;5045671;28;20213;-45
2022/06/15 07:44:47;;;;;;;2.73;2.03;;;16.90;99.90;;;;;;5047387;28;20207;-47
2022/06/15 07:50:00;;;;;;;4.83;2.03;;;17.00;99.90;;;;;;5042454;28;20217;-43
2022/06/15 07:52:29;;;;;;;4.23;2.17;;;17.00;99.90;;;;;;5045464;28;20610;-48
2022/06/15 07:54:56;;;;;;;4.23;1.70;;;17.20;99.90;;;;;;5043132;28;20203;-45
2022/06/15 07:57:24;;;;;;;2.97;1.43;;;17.30;99.90;;;;;;5053916;28;20210;-45
2022/06/15 07:59:51;;;;;;;2.03;1.43;;;17.30;99.90;;;;;;5050166;28;20660;-45
2022/06/15 08:02:20;;;;;;;2.70;1.53;;;17.40;99.90;;;;;;5045130;28;20482;-46
2022/06/15 08:04:48;;;;;;;3.27;1.27;;;17.40;99.90;;;;;;5040029;28;20295;-44
2022/06/15 08:07:16;;;;;;;2.73;1.83;;;17.50;99.90;;;;;;5050751;28;20211;-45
2022/06/15 08:09:45;;;;;;;3.00;1.60;;;17.50;99.90;;;;;;5052751;28;20207;-45
2022/06/15 08:12:14;;;;;;;5.37;2.27;;;17.60;99.90;;;;;;5050517;28;20195;-44
2022/06/15 08:14:45;;;;;;;2.17;1.20;;;17.70;99.90;;;;;;5056870;28;20671;-46
2022/06/15 08:17:16;;;;;;;2.97;1.40;;;17.80;99.90;;;;;;5047920;28;20190;-46
2022/06/15 08:19:49;;;;;;;2.17;1.40;;;18.00;99.90;;;;;;5046402;28;20260;-46
2022/06/15 08:22:17;;;;;;;1.90;1.60;;;18.10;99.90;;;;;;5053456;28;20783;-45
2022/06/15 08:24:46;;;;;;;2.33;1.10;;;18.10;99.90;;;;;;5051621;28;20559;-44
2022/06/15 08:27:15;;;;;;;1.37;1.00;;;18.20;99.90;;;;;;5054512;28;20200;-47
2022/06/15 08:29:42;;;;;;;1.63;1.30;;;18.30;99.90;;;;;;5054602;28;20253;-45
2022/06/15 08:32:09;;;;;;;1.67;0.90;;;18.20;99.90;;;;;;5043795;28;20217;-45
2022/06/15 08:34:37;;;;;;;2.37;1.17;;;18.20;99.90;;;;;;5046507;28;20211;-46
2022/06/15 08:37:08;;;;;;;2.13;1.10;;;18.20;99.90;;;;;;5040517;28;20194;-47
2022/06/15 08:39:36;;;;;;;0.70;0.70;;;18.20;99.90;;;;;;5046351;28;20215;-47
2022/06/15 08:42:11;;;;;;;2.13;0.80;;;18.20;99.90;;;;;;5045542;28;20221;-46
2022/06/15 08:44:47;;;;;;;4.80;2.07;;;18.30;99.90;;;;;;5054795;28;20236;-45
2022/06/15 08:47:34;;;;;;;3.30;1.30;;;18.30;99.90;;;;;;5049561;28;20213;-45
2022/06/15 08:50:08;;;;;;;3.73;1.17;;;18.20;99.90;;;;;;5036959;28;20362;-48
2022/06/15 08:52:40;;;;;;;4.00;1.00;;;18.10;99.90;;;;;;5063920;28;20187;-48
2022/06/15 08:55:11;;;;;;;0.90;0.90;;;18.10;99.90;;;;;;5043232;28;20195;-45
2022/06/15 08:57:43;;;;;;;2.17;1.20;;;18.10;99.90;;;;;;5057724;28;20597;-44
2022/06/15 09:00:15;;;;;;;2.30;0.87;;;18.20;99.90;;;;;;5049814;28;20246;-46
2022/06/15 09:02:50;;;;;;;3.97;0.90;;;18.30;99.90;;;;;;5046465;28;20222;-46
2022/06/15 09:05:27;;;;;;;2.73;0.93;;;18.40;99.90;;;;;;5038858;28;20214;-44
2022/06/15 09:08:13;;;;;;;3.17;1.13;;;18.40;99.90;;;;;;5049990;28;20612;-44
2022/06/15 09:10:48;;;;;;;1.00;0.90;;;18.30;99.90;;;;;;5048546;28;20719;-46
2022/06/15 09:13:27;;;;;;;1.50;0.97;;;18.40;99.90;;;;;;5044500;28;20198;-47
2022/06/15 09:16:03;;;;;;;0.77;0.67;;;18.40;99.80;;;;;;5058018;28;20210;-44
2022/06/15 09:18:35;;;;;;;2.60;0.93;;;18.50;98.40;;;;;;5049279;28;20218;-45
2022/06/15 09:21:12;;;;;;;4.03;0.90;;;18.60;97.20;;;;;;5036302;28;20358;-44
2022/06/15 09:23:47;;;;;;;2.50;0.90;;;18.60;97.00;;;;;;5056844;28;20233;-44
2022/06/15 09:26:19;;;;;;;3.13;1.00;;;18.60;96.60;;;;;;5048346;28;20268;-44
2022/06/15 09:28:50;;;;;;;3.83;1.40;;;18.60;96.60;;;;;;5058214;28;20558;-44
2022/06/15 09:31:22;;;;;;;2.70;1.10;;;18.60;96.70;;;;;;5053476;28;20218;-48
2022/06/15 09:33:53;;;;;;;3.03;1.27;;;18.70;97.50;;;;;;5052085;28;20301;-44
2022/06/15 09:36:23;;;;;;;2.70;0.87;;;18.90;97.40;;;;;;5039231;28;20203;-46
2022/06/15 09:38:52;;;;;;;1.83;0.93;;;19.00;96.10;;;;;;5059377;28;20203;-46
2022/06/15 09:41:22;;;;;;;6.70;1.60;;;19.10;96.50;;;;;;5044152;28;20223;-48
2022/06/15 09:44:00;;;;;;;4.80;1.60;;;19.20;97.00;;;;;;5042549;28;20322;-46
2022/06/15 09:46:37;;;;;;;3.53;1.63;;;19.10;97.00;;;;;;5044071;28;20667;-44
2022/06/15 09:49:21;;;;;;;1.67;1.00;;;19.20;97.60;;;;;;5044310;28;20187;-45
2022/06/15 09:51:58;;;;;;;2.97;1.77;;;19.30;98.10;;;;;;5047207;28;20334;-47
2022/06/15 09:54:34;;;;;;;4.40;1.37;;;19.50;97.90;;;;;;5048345;28;20191;-45
2022/06/15 09:57:01;;;;;;;1.73;1.27;;;19.50;97.80;;;;;;5048537;28;20210;-45
2022/06/15 09:59:33;;;;;;;1.30;1.20;;;19.50;97.70;;;;;;5051157;28;20206;-45
2022/06/15 10:02:03;;;;;;;3.00;1.13;;;19.50;97.60;;;;;;5045029;28;20989;-44
2022/06/15 10:04:34;;;;;;;3.50;1.60;;;19.30;96.90;;;;;;5049197;28;20586;-44
2022/06/15 10:07:05;;;;;;;3.60;1.20;;;19.30;96.90;;;;;;5042502;28;20974;-44
2022/06/15 10:09:37;;;;;;;2.90;1.30;;;19.40;97.10;;;;;;5044988;28;20211;-46
2022/06/15 10:15:16;;;;;;;1.53;1.20;;;19.60;95.60;;;;;;5052461;28;20964;-45
2022/06/15 10:17:47;;;;;;;1.87;1.30;;;19.50;95.90;;;;;;5051105;28;20202;-45
2022/06/15 10:20:23;;;;;;;1.50;1.40;;;19.40;95.60;;;;;;5044846;28;20223;-46
2022/06/15 10:22:54;;;;;;;2.73;1.40;;;19.40;95.40;;;;;;5039866;28;20261;-44
2022/06/15 10:25:23;;;;;;;1.30;1.10;;;19.30;95.10;;;;;;5057336;28;20564;-44
2022/06/15 10:28:08;;;;;;;4.00;1.67;;;19.30;95.30;;;;;;5050894;28;20248;-44
2022/06/15 10:30:34;;;;;;;2.10;1.90;;;19.30;95.00;;;;;;5054828;28;20219;-45
2022/06/15 10:33:04;;;;;;;2.70;1.40;;;19.30;95.20;;;;;;5053136;28;20187;-45
2022/06/15 10:35:35;;;;;;;2.90;1.30;;;19.40;95.90;;;;;;5054410;28;20215;-44
2022/06/15 10:38:09;;;;;;;2.40;1.90;;;19.40;95.60;;;;;;5035024;28;20202;-44
2022/06/15 10:40:40;;;;;;;2.30;1.40;;;19.50;95.60;;;;;;5061780;28;20226;-45
2022/06/15 10:43:16;;;;;;;5.80;1.57;;;19.60;95.10;;;;;;5050433;28;20213;-43
2022/06/15 10:45:58;;;;;;;4.07;1.70;;;19.80;95.60;;;;;;5064602;28;20252;-46
2022/06/15 10:48:31;;;;;;;2.53;1.60;;;20.00;94.50;;;;;;5052339;28;20736;-44
2022/06/15 10:51:03;;;;;;;2.00;1.33;;;20.00;93.30;;;;;;5050232;28;20299;-44
2022/06/15 10:53:37;;;;;;;1.60;1.40;;;20.00;93.20;;;;;;5043360;28;20219;-45
2022/06/15 11:02:25;;;;;;;4.13;1.27;;;20.20;91.60;;;;;;5041234;28;20195;-44
2022/06/15 11:04:56;;;;;;;1.57;1.40;;;20.50;92.80;;;;;;5051541;28;20225;-46
2022/06/15 11:07:31;;;;;;;2.97;1.50;;;20.80;91.90;;;;;;5048975;28;20215;-44
2022/06/15 11:10:10;;;;;;;4.33;1.60;;;21.00;90.30;;;;;;5034290;28;20214;-43
2022/06/15 11:12:44;;;;;;;2.27;1.30;;;21.10;88.00;;;;;;5058151;28;20206;-44
2022/06/15 11:18:01;;;;;;;3.80;1.20;;;21.20;88.80;;;;;;5052729;28;20225;-44
2022/06/15 11:18:22;;;;;;;1.30;1.00;;;21.20;86.70;;;;;;5047543;28;20190;-49
2022/06/15 11:20:54;;;;;;;1.30;1.07;;;21.00;86.00;;;;;;5053575;28;20214;-47
2022/06/15 11:23:24;;;;;;;2.53;1.10;;;21.00;88.20;;;;;;5053167;28;20218;-44
2022/06/15 11:25:55;;;;;;;3.13;1.90;;;21.00;89.90;;;;;;5042681;28;20198;-46
2022/06/15 11:28:30;;;;;;;2.20;1.30;;;20.80;89.40;;;;;;5056375;28;20815;-43
2022/06/15 11:31:00;;;;;;;1.73;1.10;;;20.60;88.40;;;;;;5058677;28;20217;-47
2022/06/15 11:33:36;;;;;;;5.10;1.40;;;20.40;89.90;;;;;;5059254;28;20210;-48
2022/06/15 11:36:10;;;;;;;1.77;1.20;;;20.40;90.00;;;;;;5052505;28;20201;-43
2022/06/15 11:38:46;;;;;;;3.33;1.63;;;20.40;89.40;;;;;;5049414;28;20573;-47
2022/06/15 11:41:23;;;;;;;4.13;1.43;;;20.40;89.80;;;;;;5051280;28;20222;-45
2022/06/15 11:43:52;;;;;;;3.80;1.40;;;20.40;89.30;;;;;;5044860;28;20221;-45
2022/06/15 11:46:30;;;;;;;2.47;1.57;;;20.50;90.40;;;;;;5051267;28;20210;-43
2022/06/15 11:49:13;;;;;;;3.13;1.63;;;20.60;88.60;;;;;;5050988;28;20191;-44
2022/06/15 11:51:58;;;;;;;4.37;1.63;;;20.80;88.60;;;;;;5051002;28;20234;-44
2022/06/15 11:54:38;;;;;;;2.00;1.20;;;21.00;87.70;;;;;;5048147;28;20211;-46
2022/06/15 11:57:14;;;;;;;2.07;1.33;;;21.10;87.60;;;;;;5039690;28;20206;-44
2022/06/15 11:59:52;;;;;;;1.43;1.33;;;21.30;86.40;;;;;;5055651;28;20217;-45
2022/06/15 12:02:30;;;;;;;3.10;1.33;;;21.20;86.60;;;;;;5047856;28;20399;-44
2022/06/15 12:05:16;;;;;;;2.53;1.63;;;21.30;84.80;;;;;;5050364;28;20211;-46
2022/06/15 12:07:56;;;;;;;1.57;1.30;;;21.50;85.70;;;;;;5057219;28;20705;-48
2022/06/15 12:10:36;;;;;;;2.25;1.70;;;21.60;84.70;;;;;;5048668;28;20307;-43
2022/06/15 12:13:14;;;;;;;3.60;1.23;;;21.80;82.80;;;;;;5040442;28;20199;-44
2022/06/15 12:15:45;;;;;;;3.67;1.60;;;22.00;85.70;;;;;;5047242;28;20199;-44
2022/06/15 12:18:23;;;;;;;2.57;1.60;;;22.20;84.70;;;;;;5055852;28;20183;-44
2022/06/15 12:20:59;;;;;;;1.63;1.48;;;22.30;84.30;;;;;;5045477;28;20222;-45
2022/06/15 12:23:39;;;;;;;1.25;1.15;;;22.30;83.30;;;;;;5044696;28;20217;-44
2022/06/15 12:26:16;;;;;;;2.75;1.70;;;22.50;85.50;;;;;;5042882;28;20206;-44
2022/06/15 12:28:51;;;;;;;2.05;1.00;;;22.70;81.30;;;;;;5047114;28;20570;-45
2022/06/15 12:31:30;;;;;;;3.00;1.00;;;22.50;80.70;;;;;;5051570;28;20230;-44
2022/06/15 12:34:05;;;;;;;1.60;1.30;;;22.50;81.50;;;;;;5042238;28;20199;-45
2022/06/15 12:36:37;;;;;;;2.72;1.63;;;22.70;80.20;;;;;;5046015;28;20203;-44
2022/06/15 12:39:13;;;;;;;2.53;1.10;;;22.80;80.90;;;;;;5038968;28;20927;-44
2022/06/15 12:44:31;;;;;;;2.83;1.30;;;23.00;80.80;;;;;;5044994;28;20282;-43
2022/06/15 12:47:00;;;;;;;4.22;1.23;;;23.20;84.90;;;;;;5046259;28;20206;-48
2022/06/15 12:49:36;;;;;;;2.17;1.00;;;23.50;81.20;;;;;;5058359;28;20200;-46
2022/06/15 12:52:11;;;;;;;2.80;1.60;;;23.70;79.10;;;;;;5054641;28;20193;-45
2022/06/15 12:54:49;;;;;;;3.88;1.48;;;23.80;78.20;;;;;;5051714;28;20249;-45
2022/06/15 12:57:29;;;;;;;2.63;1.70;;;23.50;78.30;;;;;;5048551;28;20191;-46
2022/06/15 13:00:09;;;;;;;3.00;1.30;;;24.00;75.70;;;;;;5040055;28;20207;-47
2022/06/15 13:02:45;;;;;;;2.08;1.15;;;24.20;73.90;;;;;;5053176;28;20203;-46
2022/06/15 13:05:19;;;;;;;1.40;1.30;;;24.20;74.80;;;;;;5042401;28;20222;-46
2022/06/15 13:08:21;;;;;;;5.45;1.20;;;24.40;74.50;;;;;;5043578;28;20269;-45
2022/06/15 13:11:14;;;;;;;3.05;1.40;;;24.70;72.80;;;;;;5041739;28;20237;-44
2022/06/15 13:13:46;;;;;;;2.25;1.08;;;25.10;71.00;;;;;;5061095;28;20206;-44
2022/06/15 13:16:16;;;;;;;2.78;1.40;;;25.10;71.60;;;;;;5049237;28;20218;-46
2022/06/15 13:18:49;;;;;;;1.40;1.10;;;25.50;71.50;;;;;;5048955;28;20202;-46
2022/06/15 13:21:18;;;;;;;3.85;1.63;;;25.70;69.10;;;;;;5048688;28;20207;-44
2022/06/15 13:23:48;;;;;;;3.15;1.77;;;25.80;68.00;;;;;;5043360;28;20199;-44
2022/06/15 13:26:18;;;;;;;1.42;1.23;;;25.80;66.90;;;;;;5048722;28;20246;-44
2022/06/15 13:29:06;;;;;;;2.10;1.55;;;25.90;65.10;;;;;;5053299;28;20670;-44
2022/06/15 13:31:44;;;;;;;1.38;1.20;;;26.00;65.30;;;;;;5044184;28;20630;-45
2022/06/15 13:34:13;;;;;;;1.33;1.20;;;26.10;64.10;;;;;;5049424;28;20948;-46